Time;durP1;ratioP1;P1;durP2;ratioP2;P2;SDS_P1;SDS_P2;PMS_P1;PMS_P2;Temp;Humidity;BMP_temperature;BMP_pressure;BME280_temperature;BME280_humidity;BME280_pressure;Samples;Min_cycle;Max_cycle;Signal;HPM_P1;HPM_P2
2023/07/27 00:00:41;;;;;;;10.02;6.20;;;;;;;;;;4978602;28;20044;-79
2023/07/27 00:03:07;;;;;;;10.70;5.68;;;;;;;;;;4994978;28;20108;-79
2023/07/27 00:05:33;;;;;;;10.65;6.03;;;;;;;;;;4977093;28;20128;-79
2023/07/27 00:07:59;;;;;;;9.98;5.88;;;;;;;;;;4994796;28;20042;-79
2023/07/27 00:10:25;;;;;;;10.25;6.10;;;;;;;;;;4978455;28;20033;-79
2023/07/27 00:12:52;;;;;;;13.57;6.40;;;;;;;;;;4994853;28;20042;-79
2023/07/27 00:15:18;;;;;;;13.93;6.13;;;;;;;;;;4996554;28;20538;-79
2023/07/27 00:17:44;;;;;;;13.88;6.20;;;;;;;;;;4998323;28;20045;-79
2023/07/27 00:20:10;;;;;;;15.65;6.15;;;;;;;;;;4982928;28;20034;-79
2023/07/27 00:22:36;;;;;;;10.32;5.80;;;;;;;;;;4998723;28;20137;-78
2023/07/27 00:25:02;;;;;;;9.50;5.90;;;;;;;;;;4982690;28;20053;-79
2023/07/27 00:27:28;;;;;;;11.02;6.25;;;;;;;;;;4998413;28;20483;-79
2023/07/27 00:29:54;;;;;;;9.77;5.80;;;;;;;;;;4998708;28;20415;-79
2023/07/27 00:32:20;;;;;;;11.30;6.70;;;;;;;;;;4998132;28;20038;-79
2023/07/27 00:34:46;;;;;;;12.27;5.97;;;;;;;;;;4982281;28;20253;-79
2023/07/27 00:37:13;;;;;;;11.82;5.70;;;;;;;;;;4981983;28;20041;-79
2023/07/27 00:39:39;;;;;;;9.63;5.40;;;;;;;;;;4998184;28;20038;-79
2023/07/27 00:42:05;;;;;;;8.95;5.40;;;;;;;;;;4998245;28;20041;-79
2023/07/27 00:44:31;;;;;;;8.90;5.60;;;;;;;;;;4998190;28;20052;-79
2023/07/27 00:46:57;;;;;;;9.55;5.50;;;;;;;;;;4997334;28;20565;-79
2023/07/27 00:49:23;;;;;;;10.05;5.70;;;;;;;;;;4997216;28;20081;-79
2023/07/27 00:51:49;;;;;;;12.00;6.43;;;;;;;;;;4998335;28;20408;-79
2023/07/27 00:54:16;;;;;;;11.05;5.65;;;;;;;;;;5009347;28;20534;-79
2023/07/27 00:56:42;;;;;;;11.13;5.53;;;;;;;;;;4991158;28;20041;-79
2023/07/27 00:59:08;;;;;;;10.45;5.65;;;;;;;;;;4998189;28;20658;-78
2023/07/27 01:01:34;;;;;;;9.77;5.70;;;;;;;;;;5015074;28;20037;-79
2023/07/27 01:04:00;;;;;;;9.82;5.78;;;;;;;;;;4995909;28;20052;-79
2023/07/27 01:06:27;;;;;;;9.15;5.78;;;;;;;;;;5014600;28;20077;-79
2023/07/27 01:08:53;;;;;;;9.70;5.78;;;;;;;;;;4997885;28;20046;-78
2023/07/27 01:11:23;;;;;;;9.80;5.72;;;;;;;;;;4997615;28;20065;-78
2023/07/27 01:13:57;;;;;;;9.02;5.30;;;;;;;;;;4997716;28;20041;-79
2023/07/27 01:16:27;;;;;;;9.95;5.40;;;;;;;;;;4995014;28;20041;-79
2023/07/27 01:19:03;;;;;;;9.30;5.68;;;;;;;;;;4997539;28;20072;-79
2023/07/27 01:21:34;;;;;;;10.60;5.53;;;;;;;;;;4987481;28;20133;-79
2023/07/27 01:24:19;;;;;;;8.65;5.30;;;;;;;;;;4997511;28;20053;-79
2023/07/27 01:27:03;;;;;;;9.57;5.45;;;;;;;;;;4984585;28;20128;-79
2023/07/27 01:29:47;;;;;;;10.00;5.43;;;;;;;;;;4996899;28;20045;-79
2023/07/27 01:32:14;;;;;;;7.82;5.18;;;;;;;;;;4996666;28;20048;-79
2023/07/27 01:34:43;;;;;;;8.80;5.38;;;;;;;;;;5014769;28;20050;-79
2023/07/27 01:37:10;;;;;;;10.38;5.25;;;;;;;;;;5014872;28;20041;-78
2023/07/27 01:39:38;;;;;;;8.95;4.70;;;;;;;;;;4996956;28;20042;-78
2023/07/27 01:42:05;;;;;;;8.80;5.25;;;;;;;;;;4997241;28;20030;-79
2023/07/27 01:44:33;;;;;;;8.15;5.00;;;;;;;;;;4997399;28;20045;-79
2023/07/27 01:47:00;;;;;;;8.65;5.10;;;;;;;;;;5014213;28;20115;-79
2023/07/27 01:49:27;;;;;;;10.15;5.25;;;;;;;;;;5014086;28;20056;-78
2023/07/27 01:51:53;;;;;;;10.70;5.18;;;;;;;;;;4996684;28;20070;-78
2023/07/27 01:54:20;;;;;;;11.55;5.05;;;;;;;;;;4997018;28;20046;-79
2023/07/27 01:56:46;;;;;;;11.48;5.65;;;;;;;;;;4996390;28;20037;-79
2023/07/27 01:59:12;;;;;;;8.32;5.05;;;;;;;;;;5013659;28;20037;-79
2023/07/27 02:01:42;;;;;;;10.60;5.55;;;;;;;;;;4995460;28;20125;-79
2023/07/27 02:04:09;;;;;;;7.93;4.82;;;;;;;;;;4991820;28;20053;-79
2023/07/27 02:06:35;;;;;;;9.93;5.20;;;;;;;;;;4988374;28;20717;-79
2023/07/27 02:09:01;;;;;;;8.40;5.60;;;;;;;;;;5013689;28;20113;-79
2023/07/27 02:11:27;;;;;;;8.68;5.50;;;;;;;;;;4996341;28;20044;-78
2023/07/27 02:13:53;;;;;;;9.48;5.40;;;;;;;;;;4996725;28;20557;-79
2023/07/27 02:16:37;;;;;;;10.15;6.15;;;;;;;;;;4996811;28;20030;-79
2023/07/27 02:19:05;;;;;;;9.73;5.50;;;;;;;;;;4996291;28;20053;-79
2023/07/27 02:21:32;;;;;;;8.57;5.43;;;;;;;;;;5013420;28;20502;-79
2023/07/27 02:23:58;;;;;;;10.85;5.75;;;;;;;;;;5014338;28;20056;-79
2023/07/27 02:26:25;;;;;;;11.23;5.93;;;;;;;;;;4996782;28;20073;-79
2023/07/27 02:28:51;;;;;;;10.88;5.78;;;;;;;;;;4995805;28;20128;-79
2023/07/27 02:31:17;;;;;;;11.23;6.38;;;;;;;;;;5013637;28;20487;-79
2023/07/27 02:33:43;;;;;;;11.50;5.85;;;;;;;;;;4996027;28;20096;-79
2023/07/27 02:36:09;;;;;;;10.27;6.25;;;;;;;;;;4996630;28;20038;-79
2023/07/27 02:38:35;;;;;;;9.80;6.10;;;;;;;;;;5012650;28;20034;-79
2023/07/27 02:41:01;;;;;;;12.10;6.28;;;;;;;;;;5013454;28;20038;-79
2023/07/27 02:43:27;;;;;;;12.52;6.40;;;;;;;;;;4996134;28;20049;-79
2023/07/27 02:46:00;;;;;;;12.50;7.00;;;;;;;;;;4995840;28;20107;-79
2023/07/27 02:48:27;;;;;;;11.85;6.60;;;;;;;;;;4966934;28;20042;-79
2023/07/27 02:50:53;;;;;;;12.13;7.18;;;;;;;;;;4988781;28;20057;-79
2023/07/27 02:53:19;;;;;;;10.88;6.95;;;;;;;;;;4994685;28;20049;-79
2023/07/27 02:55:58;;;;;;;11.35;6.57;;;;;;;;;;4983048;28;20045;-79
2023/07/27 02:58:24;;;;;;;11.80;6.50;;;;;;;;;;5013362;28;20074;-79
2023/07/27 03:00:51;;;;;;;9.93;6.15;;;;;;;;;;4995176;28;20041;-79
2023/07/27 03:03:17;;;;;;;12.85;7.20;;;;;;;;;;4995455;28;20058;-79
2023/07/27 03:05:43;;;;;;;15.25;6.78;;;;;;;;;;4995191;28;20053;-79
2023/07/27 03:08:09;;;;;;;10.55;6.72;;;;;;;;;;4995828;28;20050;-79
2023/07/27 03:10:36;;;;;;;11.85;7.40;;;;;;;;;;5012874;28;20045;-79
2023/07/27 03:13:02;;;;;;;13.35;7.82;;;;;;;;;;4994905;28;20050;-79
2023/07/27 03:15:28;;;;;;;11.30;7.07;;;;;;;;;;4995346;28;20045;-79
2023/07/27 03:17:54;;;;;;;13.25;7.53;;;;;;;;;;4979384;28;20041;-79
2023/07/27 03:20:20;;;;;;;13.75;7.85;;;;;;;;;;4995775;28;20122;-79
2023/07/27 03:22:46;;;;;;;12.93;7.60;;;;;;;;;;4994421;28;20387;-79
2023/07/27 03:25:12;;;;;;;11.55;7.47;;;;;;;;;;4995459;28;20053;-79
2023/07/27 03:27:38;;;;;;;12.55;7.90;;;;;;;;;;4995159;28;20069;-79
2023/07/27 03:30:05;;;;;;;13.68;7.93;;;;;;;;;;4995191;28;20096;-78
2023/07/27 03:32:31;;;;;;;12.77;8.35;;;;;;;;;;4995047;28;20088;-78
2023/07/27 03:34:57;;;;;;;14.48;8.57;;;;;;;;;;4994699;28;20051;-78
2023/07/27 03:37:23;;;;;;;14.70;8.63;;;;;;;;;;4995199;28;20034;-79
2023/07/27 03:39:49;;;;;;;16.17;8.60;;;;;;;;;;4994766;28;20048;-78
2023/07/27 03:42:15;;;;;;;16.77;9.50;;;;;;;;;;4995604;28;20030;-78
2023/07/27 03:44:42;;;;;;;18.05;10.38;;;;;;;;;;4976572;28;20157;-78
2023/07/27 03:47:08;;;;;;;16.85;10.60;;;;;;;;;;5011666;28;20124;-78
2023/07/27 03:49:34;;;;;;;21.88;10.98;;;;;;;;;;4995101;28;20053;-78
2023/07/27 03:52:00;;;;;;;17.98;10.90;;;;;;;;;;4994762;28;20132;-78
2023/07/27 03:54:27;;;;;;;19.70;10.90;;;;;;;;;;5011529;28;20042;-78
2023/07/27 03:56:53;;;;;;;18.65;10.90;;;;;;;;;;4994081;28;20048;-78
2023/07/27 03:59:19;;;;;;;17.83;10.77;;;;;;;;;;4994848;28;20092;-78
2023/07/27 04:01:45;;;;;;;19.30;11.07;;;;;;;;;;4994221;28;20084;-79
2023/07/27 04:04:11;;;;;;;20.02;11.05;;;;;;;;;;5012074;28;20040;-78
2023/07/27 04:06:37;;;;;;;19.65;11.73;;;;;;;;;;4994240;28;20089;-79
2023/07/27 04:09:03;;;;;;;19.05;11.07;;;;;;;;;;4993935;28;20065;-78
2023/07/27 04:11:32;;;;;;;21.17;11.40;;;;;;;;;;4978546;28;20038;-79
2023/07/27 04:13:58;;;;;;;22.50;11.82;;;;;;;;;;4994717;28;20124;-79
2023/07/27 04:16:24;;;;;;;18.92;11.02;;;;;;;;;;4994614;28;20034;-78
2023/07/27 04:18:50;;;;;;;20.38;11.57;;;;;;;;;;4993968;28;20042;-78
2023/07/27 04:21:16;;;;;;;21.05;11.40;;;;;;;;;;4994591;28;20078;-78
2023/07/27 04:23:42;;;;;;;17.58;10.40;;;;;;;;;;4995024;28;20403;-79
2023/07/27 04:26:08;;;;;;;18.75;10.73;;;;;;;;;;4993937;28;20042;-79
2023/07/27 04:28:34;;;;;;;16.70;9.85;;;;;;;;;;4994733;28;20046;-79
2023/07/27 04:31:00;;;;;;;16.52;9.52;;;;;;;;;;4994144;28;20042;-79
2023/07/27 04:33:26;;;;;;;16.88;9.48;;;;;;;;;;4975388;28;20503;-79
2023/07/27 04:35:52;;;;;;;16.08;8.85;;;;;;;;;;4985215;28;20495;-79
2023/07/27 04:38:18;;;;;;;14.98;8.98;;;;;;;;;;4994838;28;20479;-79
2023/07/27 04:40:45;;;;;;;15.50;8.77;;;;;;;;;;5012528;28;20038;-79
2023/07/27 04:43:12;;;;;;;15.35;8.13;;;;;;;;;;4994217;28;20048;-79
2023/07/27 04:45:38;;;;;;;11.30;7.10;;;;;;;;;;4994307;28;20090;-79
2023/07/27 04:48:06;;;;;;;13.15;7.53;;;;;;;;;;4993995;28;20038;-79
2023/07/27 04:50:32;;;;;;;12.15;7.50;;;;;;;;;;4994329;28;20082;-79
2023/07/27 04:52:58;;;;;;;12.80;7.05;;;;;;;;;;5011539;28;20050;-79
2023/07/27 04:55:24;;;;;;;11.43;7.03;;;;;;;;;;4998727;28;20037;-79
2023/07/27 04:57:50;;;;;;;13.23;7.15;;;;;;;;;;5011455;28;20038;-79
2023/07/27 05:00:16;;;;;;;11.77;6.72;;;;;;;;;;4994192;28;20041;-78
2023/07/27 05:02:44;;;;;;;12.75;7.47;;;;;;;;;;5015621;28;20041;-79
2023/07/27 05:05:10;;;;;;;12.43;7.25;;;;;;;;;;4997554;28;20034;-79
2023/07/27 05:07:36;;;;;;;11.32;6.53;;;;;;;;;;4997787;28;20041;-79
2023/07/27 05:10:02;;;;;;;11.55;7.10;;;;;;;;;;5015183;28;20042;-79
2023/07/27 05:12:28;;;;;;;11.27;6.60;;;;;;;;;;4998137;28;20475;-79
2023/07/27 05:14:54;;;;;;;13.52;7.13;;;;;;;;;;4997520;28;20038;-79
2023/07/27 05:17:21;;;;;;;13.88;7.97;;;;;;;;;;4997875;28;20550;-79
2023/07/27 05:19:47;;;;;;;12.93;7.47;;;;;;;;;;4997713;28;20112;-79
2023/07/27 05:22:13;;;;;;;11.82;6.97;;;;;;;;;;4996739;28;20054;-79
2023/07/27 05:24:39;;;;;;;13.73;7.32;;;;;;;;;;4998030;28;20357;-79
2023/07/27 05:27:05;;;;;;;12.18;7.68;;;;;;;;;;4997272;28;20077;-79
2023/07/27 05:29:31;;;;;;;13.65;8.13;;;;;;;;;;4997651;28;20403;-79
2023/07/27 05:31:57;;;;;;;12.35;7.80;;;;;;;;;;4996667;28;20499;-79
2023/07/27 05:34:23;;;;;;;14.38;8.70;;;;;;;;;;4997152;28;20483;-79
2023/07/27 05:36:49;;;;;;;15.18;9.25;;;;;;;;;;4997724;28;20506;-79
2023/07/27 05:39:15;;;;;;;13.88;8.52;;;;;;;;;;5014427;28;20457;-78
2023/07/27 05:41:42;;;;;;;15.00;9.32;;;;;;;;;;4997322;28;20045;-79
2023/07/27 05:44:08;;;;;;;18.33;9.73;;;;;;;;;;4996905;28;20046;-79
2023/07/27 05:46:34;;;;;;;15.10;9.48;;;;;;;;;;4997605;28;20502;-79
2023/07/27 05:49:00;;;;;;;16.23;9.68;;;;;;;;;;4996866;28;20103;-79
2023/07/27 05:51:26;;;;;;;17.48;10.02;;;;;;;;;;5014226;28;20060;-79
2023/07/27 05:53:52;;;;;;;14.65;9.65;;;;;;;;;;5009529;28;20045;-79
2023/07/27 05:56:18;;;;;;;18.00;9.52;;;;;;;;;;4988746;28;20402;-79
2023/07/27 05:58:44;;;;;;;18.70;10.20;;;;;;;;;;5014549;28;20442;-79
2023/07/27 06:01:10;;;;;;;18.40;9.77;;;;;;;;;;4996020;28;20042;-79
2023/07/27 06:03:37;;;;;;;16.33;9.70;;;;;;;;;;4996779;28;20060;-80
2023/07/27 06:06:03;;;;;;;17.00;10.10;;;;;;;;;;4980535;28;20415;-79
2023/07/27 06:08:29;;;;;;;14.93;10.05;;;;;;;;;;4981795;28;20045;-80
2023/07/27 06:11:06;;;;;;;16.08;9.90;;;;;;;;;;4996125;28;20038;-79
2023/07/27 06:13:33;;;;;;;15.63;9.88;;;;;;;;;;4978322;28;20076;-79
2023/07/27 06:16:00;;;;;;;16.23;9.98;;;;;;;;;;4996548;28;20108;-79
2023/07/27 06:18:26;;;;;;;15.73;9.68;;;;;;;;;;4996562;28;20042;-80
2023/07/27 06:20:52;;;;;;;16.60;9.60;;;;;;;;;;4996133;28;20042;-79
2023/07/27 06:23:18;;;;;;;17.13;9.98;;;;;;;;;;4995678;28;20054;-79
2023/07/27 06:25:45;;;;;;;18.50;9.98;;;;;;;;;;4996672;28;20451;-79
2023/07/27 06:28:11;;;;;;;15.38;9.95;;;;;;;;;;4996331;28;20041;-80
2023/07/27 06:30:38;;;;;;;14.63;9.70;;;;;;;;;;5014241;28;20046;-79
2023/07/27 06:33:06;;;;;;;16.42;9.93;;;;;;;;;;4994560;28;20096;-79
2023/07/27 06:35:32;;;;;;;15.77;9.95;;;;;;;;;;4996629;28;20077;-80
2023/07/27 06:37:59;;;;;;;16.75;10.27;;;;;;;;;;4996377;28;20525;-80
2023/07/27 06:40:25;;;;;;;18.35;11.05;;;;;;;;;;4996271;28;20047;-80
2023/07/27 06:42:51;;;;;;;18.52;10.75;;;;;;;;;;4994249;28;20100;-80
2023/07/27 06:45:18;;;;;;;15.63;10.23;;;;;;;;;;4999211;28;20060;-79
2023/07/27 06:47:44;;;;;;;14.27;9.65;;;;;;;;;;5013329;28;20117;-79
2023/07/27 06:50:10;;;;;;;15.73;9.90;;;;;;;;;;5011985;28;20041;-79
2023/07/27 06:52:36;;;;;;;14.80;9.77;;;;;;;;;;4995989;28;20117;-79
2023/07/27 06:55:02;;;;;;;15.80;10.10;;;;;;;;;;4995920;28;20038;-78
2023/07/27 06:57:28;;;;;;;17.13;9.73;;;;;;;;;;4994606;28;20088;-79
2023/07/27 06:59:54;;;;;;;13.60;9.68;;;;;;;;;;4996025;28;20120;-79
2023/07/27 07:02:20;;;;;;;15.75;9.60;;;;;;;;;;5012344;28;20076;-79
2023/07/27 07:04:47;;;;;;;16.65;10.35;;;;;;;;;;5013550;28;20574;-79
2023/07/27 07:07:14;;;;;;;15.25;9.77;;;;;;;;;;4995172;28;20077;-79
2023/07/27 07:09:40;;;;;;;12.63;8.95;;;;;;;;;;4995931;28;20406;-79
2023/07/27 07:12:06;;;;;;;12.07;8.88;;;;;;;;;;4995847;28;20058;-79
2023/07/27 07:14:33;;;;;;;13.57;9.30;;;;;;;;;;4995427;28;20045;-79
2023/07/27 07:16:59;;;;;;;12.40;8.43;;;;;;;;;;4978642;28;20372;-79
2023/07/27 07:19:25;;;;;;;12.50;8.52;;;;;;;;;;4995122;28;20040;-78
2023/07/27 07:21:52;;;;;;;10.15;7.72;;;;;;;;;;4975041;28;20049;-78
2023/07/27 07:24:18;;;;;;;12.43;7.85;;;;;;;;;;4994178;28;20046;-78
2023/07/27 07:26:45;;;;;;;10.80;8.00;;;;;;;;;;4979540;28;20100;-78
2023/07/27 07:29:11;;;;;;;11.23;7.13;;;;;;;;;;4994958;28;20104;-78
2023/07/27 07:31:37;;;;;;;10.57;7.38;;;;;;;;;;4995085;28;20085;-78
2023/07/27 07:34:03;;;;;;;13.00;7.60;;;;;;;;;;5012522;28;20045;-78
2023/07/27 07:36:29;;;;;;;10.32;7.40;;;;;;;;;;4995044;28;20042;-78
2023/07/27 07:38:55;;;;;;;12.27;7.20;;;;;;;;;;4995503;28;20037;-77
2023/07/27 07:41:22;;;;;;;12.57;7.45;;;;;;;;;;5012491;28;20034;-78
2023/07/27 07:43:48;;;;;;;16.08;7.70;;;;;;;;;;4979103;28;20049;-78
2023/07/27 07:46:14;;;;;;;10.60;6.47;;;;;;;;;;4994865;28;20057;-78
2023/07/27 07:48:41;;;;;;;9.57;6.85;;;;;;;;;;4978820;28;20068;-78
2023/07/27 07:51:14;;;;;;;10.27;6.95;;;;;;;;;;4995330;28;20397;-78
2023/07/27 07:53:40;;;;;;;10.40;6.82;;;;;;;;;;4991079;28;20039;-78
2023/07/27 07:56:12;;;;;;;10.20;6.80;;;;;;;;;;4985018;28;20038;-77
2023/07/27 07:58:38;;;;;;;10.18;6.15;;;;;;;;;;4994366;28;20123;-78
2023/07/27 08:01:04;;;;;;;9.18;6.90;;;;;;;;;;5012332;28;20048;-78
2023/07/27 08:03:30;;;;;;;8.23;6.15;;;;;;;;;;5007153;28;20099;-78
2023/07/27 08:05:57;;;;;;;8.65;6.35;;;;;;;;;;4993479;28;20038;-78
2023/07/27 08:08:23;;;;;;;8.88;6.05;;;;;;;;;;5007888;28;20042;-78
2023/07/27 08:10:49;;;;;;;7.60;5.55;;;;;;;;;;4994685;28;20422;-79
2023/07/27 08:13:15;;;;;;;9.43;5.95;;;;;;;;;;4994210;28;20046;-79
2023/07/27 08:15:50;;;;;;;8.48;5.85;;;;;;;;;;4994182;28;20038;-79
2023/07/27 08:18:16;;;;;;;8.15;4.90;;;;;;;;;;4994244;28;20042;-80
2023/07/27 08:20:42;;;;;;;8.57;5.25;;;;;;;;;;4994281;28;20038;-80
2023/07/27 08:23:08;;;;;;;6.78;5.07;;;;;;;;;;4994382;28;20434;-82
2023/07/27 08:25:40;;;;;;;7.30;5.43;;;;;;;;;;4994045;28;20061;-81
2023/07/27 08:28:06;;;;;;;6.68;5.18;;;;;;;;;;4994814;28;20545;-81
2023/07/27 08:30:32;;;;;;;6.90;4.70;;;;;;;;;;4978047;28;20073;-79
2023/07/27 08:32:58;;;;;;;7.13;5.15;;;;;;;;;;5011922;28;20045;-80
2023/07/27 08:35:25;;;;;;;6.68;5.07;;;;;;;;;;4994366;28;20030;-79
2023/07/27 08:37:51;;;;;;;5.93;4.43;;;;;;;;;;4998303;28;20041;-79
2023/07/27 08:40:17;;;;;;;6.22;5.07;;;;;;;;;;5015875;28;20049;-80
2023/07/27 08:42:46;;;;;;;6.15;4.35;;;;;;;;;;4979732;28;20125;-79
2023/07/27 08:45:20;;;;;;;6.53;4.50;;;;;;;;;;4982061;28;20037;-79
2023/07/27 08:47:47;;;;;;;5.53;4.53;;;;;;;;;;4997888;28;20066;-80
2023/07/27 08:50:13;;;;;;;5.22;4.40;;;;;;;;;;4997081;28;20033;-79
2023/07/27 08:52:40;;;;;;;5.38;4.07;;;;;;;;;;4997652;28;20044;-80
2023/07/27 08:55:07;;;;;;;4.68;3.67;;;;;;;;;;4965402;28;20046;-79
2023/07/27 08:57:33;;;;;;;4.75;3.58;;;;;;;;;;4996554;28;20050;-79
2023/07/27 08:59:59;;;;;;;4.78;3.50;;;;;;;;;;4997218;28;20042;-79
2023/07/27 09:02:25;;;;;;;4.95;3.90;;;;;;;;;;4997009;28;20046;-79
2023/07/27 09:04:51;;;;;;;4.70;3.60;;;;;;;;;;4997107;28;20104;-79
2023/07/27 09:07:18;;;;;;;5.10;3.70;;;;;;;;;;4979589;28;20046;-79
2023/07/27 09:09:51;;;;;;;5.15;3.75;;;;;;;;;;4996814;28;21064;-79
2023/07/27 09:12:18;;;;;;;5.88;3.58;;;;;;;;;;4997973;28;20088;-79
2023/07/27 09:14:44;;;;;;;4.00;3.42;;;;;;;;;;4997445;28;20046;-79
2023/07/27 09:17:12;;;;;;;4.78;3.60;;;;;;;;;;4997478;28;20072;-79
2023/07/27 09:19:39;;;;;;;5.03;3.67;;;;;;;;;;4997242;28;20121;-79
2023/07/27 09:22:05;;;;;;;4.95;3.88;;;;;;;;;;4997493;28;20128;-79
2023/07/27 09:24:32;;;;;;;4.30;3.75;;;;;;;;;;4997611;28;20041;-79
2023/07/27 09:26:59;;;;;;;4.80;3.75;;;;;;;;;;4998149;28;20498;-79
2023/07/27 09:29:25;;;;;;;4.43;3.67;;;;;;;;;;4997278;28;20049;-79
2023/07/27 09:31:52;;;;;;;4.65;3.85;;;;;;;;;;4997003;28;20057;-79
2023/07/27 09:34:19;;;;;;;3.63;3.28;;;;;;;;;;4997434;28;20048;-79
2023/07/27 09:36:45;;;;;;;9.05;3.85;;;;;;;;;;5014853;28;20122;-79
2023/07/27 09:39:13;;;;;;;4.32;3.55;;;;;;;;;;4997079;28;20092;-79
2023/07/27 09:41:42;;;;;;;4.45;3.50;;;;;;;;;;4996804;28;20050;-79
2023/07/27 09:44:12;;;;;;;4.13;3.53;;;;;;;;;;4997344;28;20163;-79
2023/07/27 09:46:38;;;;;;;4.20;3.60;;;;;;;;;;4997014;28;20509;-80
2023/07/27 09:49:04;;;;;;;4.07;3.55;;;;;;;;;;4997394;28;20546;-79
2023/07/27 09:51:30;;;;;;;4.20;3.65;;;;;;;;;;4996858;28;20467;-79
2023/07/27 09:53:58;;;;;;;4.38;3.75;;;;;;;;;;4990953;28;20042;-79
2023/07/27 09:56:25;;;;;;;4.88;3.80;;;;;;;;;;4982075;28;20125;-80
2023/07/27 09:58:51;;;;;;;4.82;4.10;;;;;;;;;;5011464;28;20043;-80
2023/07/27 10:01:17;;;;;;;4.75;4.20;;;;;;;;;;5014165;28;20046;-79
2023/07/27 10:03:45;;;;;;;4.28;3.80;;;;;;;;;;5013276;28;20156;-77
2023/07/27 10:06:11;;;;;;;4.25;3.85;;;;;;;;;;4997144;28;20041;-78
2023/07/27 10:08:38;;;;;;;4.10;3.70;;;;;;;;;;4996027;28;20411;-78
2023/07/27 10:11:04;;;;;;;4.80;4.28;;;;;;;;;;4996635;28;20511;-79
2023/07/27 10:13:30;;;;;;;4.93;4.40;;;;;;;;;;4996962;28;20572;-80
2023/07/27 10:15:57;;;;;;;4.80;4.15;;;;;;;;;;4995296;28;20045;-79
2023/07/27 10:18:25;;;;;;;5.22;3.85;;;;;;;;;;4996702;28;20117;-79
2023/07/27 10:20:51;;;;;;;5.20;4.00;;;;;;;;;;4993564;28;20037;-78
2023/07/27 10:23:20;;;;;;;5.57;3.80;;;;;;;;;;4996093;28;20058;-79
2023/07/27 10:25:55;;;;;;;4.95;4.30;;;;;;;;;;4990846;28;20077;-78
2023/07/27 10:28:48;;;;;;;6.57;4.55;;;;;;;;;;4976759;28;20040;-79
2023/07/27 10:31:15;;;;;;;5.70;4.28;;;;;;;;;;4993035;28;20499;-79
2023/07/27 10:33:46;;;;;;;5.45;4.45;;;;;;;;;;5009237;28;20042;-79
2023/07/27 10:36:13;;;;;;;4.90;4.40;;;;;;;;;;4996391;28;20038;-79
2023/07/27 10:38:39;;;;;;;4.72;4.28;;;;;;;;;;4996040;28;20140;-79
2023/07/27 10:41:15;;;;;;;5.15;4.65;;;;;;;;;;5013774;28;20034;-79
2023/07/27 10:44:00;;;;;;;5.70;4.72;;;;;;;;;;4995982;28;20038;-79
2023/07/27 10:46:26;;;;;;;5.35;4.80;;;;;;;;;;4995524;28;20038;-79
2023/07/27 10:49:07;;;;;;;8.25;5.28;;;;;;;;;;4991835;28;20491;-79
2023/07/27 10:51:33;;;;;;;6.72;5.35;;;;;;;;;;5013219;28;20054;-79
2023/07/27 10:53:59;;;;;;;5.70;5.20;;;;;;;;;;5006762;28;20105;-79
2023/07/27 10:56:25;;;;;;;7.05;5.60;;;;;;;;;;4988633;28;20045;-79
2023/07/27 10:58:59;;;;;;;5.55;4.93;;;;;;;;;;5012889;28;20419;-78
2023/07/27 11:01:25;;;;;;;5.80;5.25;;;;;;;;;;4990013;28;20038;-79
2023/07/27 11:03:51;;;;;;;6.40;4.55;;;;;;;;;;4993061;28;20042;-79
2023/07/27 11:06:18;;;;;;;4.85;4.35;;;;;;;;;;5013892;28;20121;-79
2023/07/27 11:08:44;;;;;;;6.72;4.60;;;;;;;;;;5013128;28;20045;-79
2023/07/27 11:11:14;;;;;;;5.15;4.40;;;;;;;;;;5013731;28;20108;-79
2023/07/27 11:13:40;;;;;;;5.43;4.70;;;;;;;;;;4990513;28;20042;-79
2023/07/27 11:16:07;;;;;;;5.25;4.75;;;;;;;;;;4994757;28;20037;-79
2023/07/27 11:18:34;;;;;;;5.10;4.60;;;;;;;;;;4995996;28;20045;-79
2023/07/27 11:21:02;;;;;;;5.35;4.68;;;;;;;;;;4995330;28;20037;-78
2023/07/27 11:23:29;;;;;;;4.50;4.10;;;;;;;;;;4995531;28;20046;-79
2023/07/27 11:25:55;;;;;;;4.47;3.97;;;;;;;;;;5010334;28;20533;-79
2023/07/27 11:28:22;;;;;;;5.55;4.60;;;;;;;;;;5013009;28;20121;-79
2023/07/27 11:30:52;;;;;;;5.43;4.90;;;;;;;;;;5012519;28;20033;-79
2023/07/27 11:33:29;;;;;;;4.40;4.00;;;;;;;;;;4995239;28;20056;-79
2023/07/27 11:35:55;;;;;;;4.93;4.43;;;;;;;;;;4977964;28;20037;-79
2023/07/27 11:38:21;;;;;;;7.75;4.72;;;;;;;;;;4995268;28;20122;-79
2023/07/27 11:40:48;;;;;;;5.20;4.60;;;;;;;;;;4994857;28;20042;-79
2023/07/27 11:43:14;;;;;;;5.65;4.50;;;;;;;;;;4992873;28;20073;-79
2023/07/27 11:45:40;;;;;;;4.70;3.80;;;;;;;;;;4995031;28;20049;-79
2023/07/27 11:48:06;;;;;;;5.68;3.90;;;;;;;;;;4978188;28;20049;-79
2023/07/27 11:50:39;;;;;;;4.70;3.28;;;;;;;;;;4978958;28;20089;-79
2023/07/27 11:53:09;;;;;;;6.47;3.30;;;;;;;;;;4978482;28;20038;-81
2023/07/27 11:55:36;;;;;;;4.43;3.30;;;;;;;;;;4981414;28;20491;-80
2023/07/27 11:58:08;;;;;;;4.18;3.40;;;;;;;;;;4994288;28;20034;-80
2023/07/27 12:00:35;;;;;;;4.00;2.75;;;;;;;;;;4995324;28;20042;-79
2023/07/27 12:03:01;;;;;;;5.60;2.97;;;;;;;;;;4994719;28;20057;-79
2023/07/27 12:05:27;;;;;;;2.78;2.47;;;;;;;;;;4995075;28;20415;-79
2023/07/27 12:07:56;;;;;;;4.68;2.85;;;;;;;;;;4994176;28;20038;-79
2023/07/27 12:10:25;;;;;;;3.80;2.70;;;;;;;;;;4994325;28;20046;-79
2023/07/27 12:12:54;;;;;;;3.08;2.50;;;;;;;;;;5011839;28;20050;-78
2023/07/27 12:15:30;;;;;;;3.50;2.55;;;;;;;;;;4994680;28;20044;-77
2023/07/27 12:17:56;;;;;;;;;;;;;;;;;;4994687;28;20439;-77
2023/07/27 12:20:22;;;;;;;;;;;;;;;;;;4994788;28;19918;-77
2023/07/27 14:45:40;;;;;;;2.10;1.40;;;;;;;;;;4993409;23;1295722;-79
2023/07/27 14:48:06;;;;;;;2.88;1.52;;;;;;;;;;5009376;28;20124;-78
2023/07/27 14:50:33;;;;;;;2.60;1.60;;;;;;;;;;5012617;28;20052;-78
2023/07/27 14:52:59;;;;;;;2.70;1.50;;;;;;;;;;5035416;28;20495;-77
2023/07/27 14:55:25;;;;;;;3.83;1.85;;;;;;;;;;5018208;28;20079;-77
2023/07/27 14:57:51;;;;;;;2.90;1.80;;;;;;;;;;5037116;28;20261;-78
2023/07/27 15:00:18;;;;;;;2.67;1.60;;;;;;;;;;5017128;28;20034;-78
2023/07/27 15:02:44;;;;;;;2.95;1.52;;;;;;;;;;5015886;28;20041;-76
2023/07/27 15:05:10;;;;;;;2.83;1.88;;;;;;;;;;5017056;28;20049;-78
2023/07/27 15:07:36;;;;;;;3.80;1.75;;;;;;;;;;5016112;28;20060;-77
2023/07/27 15:10:03;;;;;;;3.58;1.90;;;;;;;;;;4999847;28;20049;-75
2023/07/27 15:12:29;;;;;;;2.75;1.75;;;;;;;;;;5017878;28;20124;-74
2023/07/27 15:14:55;;;;;;;3.13;1.98;;;;;;;;;;4998788;28;20045;-78
2023/07/27 15:17:21;;;;;;;3.47;1.75;;;;;;;;;;5018414;28;20487;-77
2023/07/27 15:19:47;;;;;;;3.20;2.00;;;;;;;;;;5025995;28;20138;-77
2023/07/27 15:22:13;;;;;;;4.40;2.40;;;;;;;;;;5015565;28;20049;-77
2023/07/27 15:24:39;;;;;;;6.28;2.30;;;;;;;;;;5002694;28;20064;-77
2023/07/27 15:27:06;;;;;;;4.68;2.22;;;;;;;;;;5016288;28;20045;-77
2023/07/27 15:29:32;;;;;;;3.53;2.50;;;;;;;;;;5026643;28;20475;-77
2023/07/27 15:31:58;;;;;;;3.97;2.78;;;;;;;;;;5015345;28;20038;-78
2023/07/27 15:34:24;;;;;;;5.05;3.00;;;;;;;;;;4999306;28;20055;-77
2023/07/27 15:36:50;;;;;;;5.60;3.15;;;;;;;;;;5015550;28;20408;-77
2023/07/27 15:39:16;;;;;;;4.75;3.03;;;;;;;;;;5015357;28;20049;-77
2023/07/27 15:41:42;;;;;;;7.47;3.50;;;;;;;;;;5027429;28;20445;-77
2023/07/27 15:44:08;;;;;;;5.90;3.47;;;;;;;;;;5017805;28;20037;-77
2023/07/27 15:46:34;;;;;;;6.85;3.30;;;;;;;;;;5038815;28;20091;-77
2023/07/27 15:49:00;;;;;;;5.47;3.08;;;;;;;;;;5049335;28;20052;-77
2023/07/27 15:51:26;;;;;;;5.85;3.28;;;;;;;;;;5048552;28;20041;-77
2023/07/27 15:53:52;;;;;;;6.30;3.40;;;;;;;;;;5010415;28;20044;-78
2023/07/27 15:56:18;;;;;;;6.38;3.25;;;;;;;;;;5034896;28;20046;-77
2023/07/27 15:58:45;;;;;;;7.03;3.80;;;;;;;;;;5036213;28;20562;-76
2023/07/27 16:01:11;;;;;;;7.63;3.85;;;;;;;;;;5045339;28;20095;-76
2023/07/27 16:03:37;;;;;;;6.75;3.83;;;;;;;;;;5021827;28;20100;-76
2023/07/27 16:06:04;;;;;;;8.63;4.15;;;;;;;;;;5038904;28;20037;-77
2023/07/27 16:08:30;;;;;;;8.50;4.05;;;;;;;;;;5031894;28;20045;-77
2023/07/27 16:10:56;;;;;;;8.43;4.30;;;;;;;;;;5025280;28;20087;-77
2023/07/27 16:13:22;;;;;;;5.63;3.63;;;;;;;;;;5032809;28;20048;-78
2023/07/27 16:15:49;;;;;;;6.47;4.25;;;;;;;;;;5035052;28;20044;-79
2023/07/27 16:18:15;;;;;;;8.98;4.47;;;;;;;;;;5037010;28;20041;-78
2023/07/27 16:20:42;;;;;;;9.55;4.93;;;;;;;;;;5033300;28;20045;-78
2023/07/27 16:23:10;;;;;;;9.18;4.85;;;;;;;;;;5040885;28;20108;-78
2023/07/27 16:25:36;;;;;;;9.63;4.90;;;;;;;;;;5015777;28;20270;-76
2023/07/27 16:28:02;;;;;;;9.13;4.80;;;;;;;;;;5024358;28;20402;-78
2023/07/27 16:30:28;;;;;;;7.50;4.88;;;;;;;;;;5015584;28;20407;-77
2023/07/27 16:32:54;;;;;;;9.77;4.88;;;;;;;;;;5037057;28;20050;-79
2023/07/27 16:35:20;;;;;;;10.80;5.40;;;;;;;;;;5039334;28;20094;-78
2023/07/27 16:37:46;;;;;;;11.80;5.70;;;;;;;;;;5026969;28;20403;-78
2023/07/27 16:40:13;;;;;;;10.38;5.82;;;;;;;;;;5043913;28;20044;-76
2023/07/27 16:42:39;;;;;;;10.07;5.50;;;;;;;;;;5051091;28;20080;-77
2023/07/27 16:45:05;;;;;;;10.52;5.45;;;;;;;;;;5037394;28;20376;-78
2023/07/27 16:47:31;;;;;;;11.25;6.07;;;;;;;;;;5033649;28;20566;-77
2023/07/27 16:49:57;;;;;;;11.40;6.40;;;;;;;;;;5024347;28;20043;-78
2023/07/27 16:52:23;;;;;;;9.80;5.32;;;;;;;;;;5034325;28;20037;-78
2023/07/27 16:54:49;;;;;;;13.60;6.20;;;;;;;;;;5017233;28;20498;-77
2023/07/27 16:57:16;;;;;;;9.43;5.47;;;;;;;;;;5032389;28;20060;-77